Time;durP1;ratioP1;P1;durP2;ratioP2;P2;SDS_P1;SDS_P2;PMS_P1;PMS_P2;Temp;Humidity;BMP_temperature;BMP_pressure;BME280_temperature;BME280_humidity;BME280_pressure;Samples;Min_cycle;Max_cycle;Signal;HPM_P1;HPM_P2
2023/08/18 00:01:31;;;;;;;39.00;34.90;;;19.40;85.00;;;;;;5018388;28;20025;-76
2023/08/18 00:03:56;;;;;;;39.88;35.10;;;19.30;85.10;;;;;;5015626;28;20103;-77
2023/08/18 00:06:23;;;;;;;39.22;34.60;;;19.30;85.30;;;;;;5009785;28;20030;-78
2023/08/18 00:08:48;;;;;;;38.90;34.75;;;19.20;85.50;;;;;;5014657;28;20026;-77
2023/08/18 00:11:14;;;;;;;40.67;36.22;;;19.10;85.70;;;;;;5012316;28;20666;-77
2023/08/18 00:13:40;;;;;;;41.40;36.63;;;19.10;85.80;;;;;;5001695;28;20045;-77
2023/08/18 00:16:06;;;;;;;46.70;37.20;;;19.00;86.10;;;;;;5012525;28;20033;-77
2023/08/18 00:18:32;;;;;;;40.40;33.95;;;19.00;86.20;;;;;;5010552;28;20026;-77
2023/08/18 00:20:58;;;;;;;40.80;36.33;;;19.00;86.30;;;;;;5004689;28;20048;-77
2023/08/18 00:23:23;;;;;;;41.95;37.25;;;19.00;86.30;;;;;;5007976;28;20042;-77
2023/08/18 00:25:49;;;;;;;44.28;37.38;;;18.90;86.40;;;;;;5017318;28;20055;-77
2023/08/18 00:28:15;;;;;;;38.17;34.03;;;18.80;86.60;;;;;;5008606;28;20029;-77
2023/08/18 00:30:41;;;;;;;46.30;38.67;;;18.90;86.70;;;;;;5009733;28;20057;-77
2023/08/18 00:33:07;;;;;;;41.17;35.65;;;18.80;86.80;;;;;;5018100;28;20041;-77
2023/08/18 00:35:33;;;;;;;41.03;36.67;;;18.80;86.90;;;;;;4993494;28;20375;-77
2023/08/18 00:37:59;;;;;;;46.55;37.33;;;18.70;86.90;;;;;;4998383;28;20057;-77
2023/08/18 00:40:25;;;;;;;42.97;35.92;;;18.70;87.00;;;;;;4991652;28;20667;-78
2023/08/18 00:42:51;;;;;;;42.97;37.38;;;18.60;87.10;;;;;;4993908;28;20030;-77
2023/08/18 00:45:16;;;;;;;45.95;37.95;;;18.70;87.00;;;;;;4990674;28;20029;-77
2023/08/18 00:47:43;;;;;;;45.40;37.47;;;18.60;87.10;;;;;;4995202;28;20030;-76
2023/08/18 00:50:11;;;;;;;43.20;38.55;;;18.60;87.10;;;;;;4985938;28;20035;-77
2023/08/18 00:52:38;;;;;;;42.17;37.03;;;18.60;87.10;;;;;;4990096;28;20445;-77
2023/08/18 00:55:06;;;;;;;46.42;40.50;;;18.60;87.30;;;;;;4999190;28;20030;-77
2023/08/18 00:57:33;;;;;;;46.65;38.90;;;18.60;87.40;;;;;;5018853;28;20037;-77
2023/08/18 00:59:59;;;;;;;45.35;37.03;;;18.60;87.50;;;;;;4992455;28;20130;-77
2023/08/18 01:02:25;;;;;;;45.25;38.03;;;18.60;87.60;;;;;;4983583;28;20070;-76
2023/08/18 01:04:51;;;;;;;44.58;37.65;;;18.60;87.50;;;;;;4990646;28;20537;-77
2023/08/18 01:07:17;;;;;;;43.35;36.38;;;18.60;87.40;;;;;;4985019;28;20039;-78
2023/08/18 01:09:44;;;;;;;42.58;35.80;;;18.60;87.30;;;;;;4992756;28;20034;-79
2023/08/18 01:12:32;;;;;;;42.10;37.05;;;18.60;87.30;;;;;;4992270;28;20445;-79
2023/08/18 01:15:30;;;;;;;41.40;36.22;;;18.60;87.30;;;;;;5001646;28;20034;-78
2023/08/18 01:18:01;;;;;;;45.55;37.38;;;18.60;87.20;;;;;;4994083;28;20432;-77
2023/08/18 01:20:27;;;;;;;45.22;38.60;;;18.60;87.20;;;;;;5010207;28;20099;-77
2023/08/18 01:22:57;;;;;;;45.97;39.33;;;18.60;87.30;;;;;;5010063;28;20128;-77
2023/08/18 01:25:23;;;;;;;46.13;39.28;;;18.60;87.30;;;;;;4984484;28;20113;-77
2023/08/18 01:27:49;;;;;;;43.85;39.10;;;18.50;87.30;;;;;;4986064;28;20085;-77
2023/08/18 01:30:16;;;;;;;48.97;40.72;;;18.50;87.50;;;;;;4984907;28;20026;-77
2023/08/18 01:32:51;;;;;;;52.58;44.13;;;18.60;87.50;;;;;;4993101;28;20157;-77
2023/08/18 01:35:18;;;;;;;45.03;39.20;;;18.60;87.40;;;;;;4980475;28;20577;-77
2023/08/18 01:37:46;;;;;;;52.42;45.00;;;18.60;87.40;;;;;;4979478;28;20073;-78
2023/08/18 01:40:14;;;;;;;48.72;42.63;;;18.60;87.40;;;;;;4983868;28;20034;-77
2023/08/18 01:42:40;;;;;;;47.42;39.95;;;18.60;87.50;;;;;;4987004;28;20144;-77
2023/08/18 01:45:08;;;;;;;53.58;44.33;;;18.60;87.50;;;;;;4994063;28;20026;-79
2023/08/18 01:47:34;;;;;;;50.33;41.97;;;18.60;87.40;;;;;;4993385;28;20110;-78
2023/08/18 01:50:00;;;;;;;55.17;45.55;;;18.60;87.40;;;;;;4992061;28;20041;-77
2023/08/18 01:52:25;;;;;;;55.55;45.28;;;18.60;87.40;;;;;;4995973;28;20123;-77
2023/08/18 01:54:52;;;;;;;52.95;43.78;;;18.60;87.50;;;;;;5000113;28;20074;-77
2023/08/18 01:57:17;;;;;;;55.13;45.58;;;18.60;87.50;;;;;;5010874;28;20087;-77
2023/08/18 01:59:43;;;;;;;54.63;46.58;;;18.70;87.50;;;;;;5015139;28;20549;-77
2023/08/18 02:02:08;;;;;;;53.92;45.83;;;18.70;87.40;;;;;;5012575;28;20033;-78
2023/08/18 02:04:34;;;;;;;53.25;44.00;;;18.70;87.40;;;;;;5009794;28;20066;-77
2023/08/18 02:07:00;;;;;;;57.97;47.47;;;18.70;87.40;;;;;;4992537;28;20114;-77
2023/08/18 02:09:25;;;;;;;53.10;44.95;;;18.70;87.20;;;;;;4996211;28;20042;-78
2023/08/18 02:11:51;;;;;;;58.28;48.58;;;18.70;87.20;;;;;;4998080;28;20489;-78
2023/08/18 02:14:17;;;;;;;52.78;45.83;;;18.70;87.20;;;;;;5004812;28;20473;-77
2023/08/18 02:16:43;;;;;;;58.63;49.17;;;18.70;87.30;;;;;;5011528;28;20047;-77
2023/08/18 02:19:08;;;;;;;54.83;47.08;;;18.60;87.20;;;;;;5013941;28;20295;-77
2023/08/18 02:21:34;;;;;;;55.47;46.58;;;18.60;87.60;;;;;;5016838;28;20071;-77
2023/08/18 02:24:00;;;;;;;60.90;49.10;;;18.50;87.80;;;;;;5015828;28;20041;-77
2023/08/18 02:26:25;;;;;;;59.35;47.38;;;18.40;88.00;;;;;;5031951;28;20040;-78
2023/08/18 02:28:51;;;;;;;61.95;48.28;;;18.40;88.10;;;;;;5010129;28;20224;-77
2023/08/18 02:31:17;;;;;;;61.80;49.15;;;18.40;88.10;;;;;;5011924;28;20046;-77
2023/08/18 02:33:43;;;;;;;59.30;48.42;;;18.40;88.10;;;;;;5015994;28;20091;-77
2023/08/18 02:36:08;;;;;;;59.60;48.47;;;18.40;88.30;;;;;;5018186;28;20108;-77
2023/08/18 02:38:35;;;;;;;60.90;47.75;;;18.30;88.40;;;;;;5018101;28;20037;-77
2023/08/18 02:41:01;;;;;;;61.55;50.58;;;18.30;88.40;;;;;;5013061;28;20462;-78
2023/08/18 02:43:27;;;;;;;60.15;48.38;;;18.30;88.50;;;;;;5016320;28;20049;-77
2023/08/18 02:45:56;;;;;;;61.40;48.88;;;18.20;88.70;;;;;;5014352;28;20069;-77
2023/08/18 02:48:23;;;;;;;63.22;49.65;;;18.30;88.80;;;;;;5009067;28;20057;-77
2023/08/18 02:50:49;;;;;;;61.50;49.97;;;18.20;89.10;;;;;;4998522;28;20084;-77
2023/08/18 02:53:15;;;;;;;58.42;48.47;;;18.20;89.10;;;;;;4989823;28;20034;-77
2023/08/18 02:55:42;;;;;;;66.38;50.65;;;18.20;89.10;;;;;;5002903;28;20040;-77
2023/08/18 02:58:08;;;;;;;61.22;49.55;;;18.20;89.10;;;;;;5013866;28;20865;-77
2023/08/18 03:00:37;;;;;;;61.85;49.58;;;18.20;89.30;;;;;;5013204;28;20031;-77
2023/08/18 03:03:03;;;;;;;63.63;50.00;;;18.20;89.30;;;;;;4990268;28;20030;-77
2023/08/18 03:05:28;;;;;;;64.45;51.45;;;18.10;89.30;;;;;;4995727;28;20033;-76
2023/08/18 03:07:54;;;;;;;62.03;48.20;;;18.20;89.40;;;;;;4991915;28;20078;-77
2023/08/18 03:10:19;;;;;;;62.63;48.80;;;18.10;89.50;;;;;;4999154;28;20071;-77
2023/08/18 03:12:45;;;;;;;64.18;50.40;;;18.10;89.50;;;;;;4993314;28;20360;-76
2023/08/18 03:15:11;;;;;;;62.67;50.30;;;18.10;89.60;;;;;;4986081;28;20161;-77
2023/08/18 03:17:36;;;;;;;66.15;49.83;;;18.20;89.60;;;;;;4987897;28;20209;-77
2023/08/18 03:20:04;;;;;;;60.55;46.38;;;18.10;89.50;;;;;;4986755;28;20035;-78
2023/08/18 03:22:32;;;;;;;69.97;50.58;;;18.10;89.60;;;;;;4987393;28;20026;-78
2023/08/18 03:24:57;;;;;;;64.50;49.63;;;18.10;89.60;;;;;;4992076;28;20026;-77
2023/08/18 03:27:23;;;;;;;63.60;48.08;;;18.10;89.70;;;;;;4993528;28;20076;-77
2023/08/18 03:29:49;;;;;;;67.72;50.40;;;18.10;89.80;;;;;;4990078;28;20518;-77
2023/08/18 03:32:14;;;;;;;72.43;52.70;;;18.10;89.80;;;;;;4985871;28;20042;-77
2023/08/18 03:34:40;;;;;;;68.80;49.95;;;18.00;89.90;;;;;;4979047;28;20034;-76
2023/08/18 03:37:06;;;;;;;74.07;51.50;;;18.00;90.10;;;;;;4992499;28;20022;-77
2023/08/18 03:39:31;;;;;;;73.38;52.10;;;18.00;90.10;;;;;;4999174;28;20036;-78
2023/08/18 03:41:57;;;;;;;70.32;51.20;;;18.00;90.20;;;;;;5015061;28;20041;-77
2023/08/18 03:44:23;;;;;;;72.78;52.30;;;17.90;90.40;;;;;;5018759;27;20465;-77
2023/08/18 03:46:48;;;;;;;70.28;51.40;;;17.90;90.50;;;;;;5014890;28;20056;-77
2023/08/18 03:49:14;;;;;;;71.43;51.25;;;17.90;90.70;;;;;;5011332;28;20026;-77
2023/08/18 03:51:39;;;;;;;77.28;55.03;;;17.90;90.80;;;;;;5012544;28;20029;-77
2023/08/18 03:54:05;;;;;;;76.35;53.35;;;18.00;90.80;;;;;;5021379;28;20050;-77
2023/08/18 03:56:31;;;;;;;81.78;56.15;;;17.90;90.80;;;;;;5005061;28;20479;-77
2023/08/18 03:58:56;;;;;;;73.68;54.50;;;17.90;90.90;;;;;;5005797;28;20120;-77
2023/08/18 04:01:22;;;;;;;74.15;51.13;;;17.90;90.90;;;;;;5010292;28;20525;-77
2023/08/18 04:03:48;;;;;;;75.88;53.47;;;18.00;91.00;;;;;;5016529;28;20090;-77
2023/08/18 04:06:14;;;;;;;74.97;52.25;;;18.00;91.00;;;;;;5021195;28;20035;-78
2023/08/18 04:08:41;;;;;;;73.00;53.28;;;18.00;90.90;;;;;;5011490;28;20362;-78
2023/08/18 04:11:07;;;;;;;68.43;49.53;;;17.90;90.90;;;;;;5017358;28;20589;-77
2023/08/18 04:13:33;;;;;;;73.55;52.05;;;18.00;90.90;;;;;;5012429;28;20038;-78
2023/08/18 04:15:58;;;;;;;72.30;53.30;;;18.00;90.90;;;;;;5015217;28;20041;-77
2023/08/18 04:18:24;;;;;;;71.97;51.67;;;18.00;90.80;;;;;;5010192;28;20041;-78
2023/08/18 04:20:50;;;;;;;74.88;51.83;;;18.00;90.90;;;;;;5009860;28;20029;-77
2023/08/18 04:23:16;;;;;;;75.50;53.65;;;17.90;91.10;;;;;;5006778;28;20468;-77
2023/08/18 04:25:43;;;;;;;77.03;53.05;;;17.90;91.30;;;;;;5003546;28;20042;-77
2023/08/18 04:28:09;;;;;;;84.32;54.65;;;18.00;91.30;;;;;;5008710;28;20009;-78
2023/08/18 04:30:35;;;;;;;75.07;52.33;;;18.00;91.50;;;;;;5006003;28;20042;-77
2023/08/18 04:33:01;;;;;;;77.85;53.47;;;18.00;91.50;;;;;;5012917;28;20056;-77
2023/08/18 04:35:26;;;;;;;78.43;52.42;;;18.00;91.50;;;;;;5013177;28;20042;-77
2023/08/18 04:37:52;;;;;;;79.97;54.20;;;18.00;91.50;;;;;;5014298;28;20030;-77
2023/08/18 04:40:18;;;;;;;72.43;50.70;;;18.10;91.50;;;;;;5011109;28;20124;-77
2023/08/18 04:42:44;;;;;;;76.38;51.65;;;18.10;91.40;;;;;;5010002;28;20510;-79
2023/08/18 04:45:09;;;;;;;74.90;52.85;;;18.20;91.50;;;;;;5014019;28;20113;-78
2023/08/18 04:47:35;;;;;;;71.07;49.88;;;18.20;91.40;;;;;;5010529;28;20022;-77
2023/08/18 04:50:03;;;;;;;73.25;52.42;;;18.20;91.40;;;;;;4995814;28;20054;-77
2023/08/18 04:52:28;;;;;;;78.57;53.63;;;18.20;91.30;;;;;;4988989;28;20684;-77
2023/08/18 04:54:54;;;;;;;74.28;51.85;;;18.20;91.40;;;;;;4984095;28;20102;-78
2023/08/18 04:57:20;;;;;;;78.00;52.20;;;18.30;91.30;;;;;;4992540;28;20518;-78
2023/08/18 04:59:45;;;;;;;84.60;53.80;;;18.30;91.30;;;;;;5006896;28;20462;-77
2023/08/18 05:02:11;;;;;;;73.75;52.05;;;18.30;91.30;;;;;;5007999;28;20482;-77
2023/08/18 05:04:37;;;;;;;78.63;52.03;;;18.40;91.30;;;;;;5012689;28;20109;-77
2023/08/18 05:07:03;;;;;;;79.38;53.95;;;18.40;91.40;;;;;;5008519;28;20046;-77
2023/08/18 05:09:30;;;;;;;74.88;51.33;;;18.40;91.40;;;;;;5010430;28;20026;-78
2023/08/18 05:11:55;;;;;;;81.60;51.45;;;18.50;91.50;;;;;;5016932;28;20117;-77
2023/08/18 05:14:21;;;;;;;70.00;50.20;;;18.50;91.50;;;;;;5013129;28;20121;-77
2023/08/18 05:16:47;;;;;;;69.97;49.42;;;18.60;91.40;;;;;;5012316;28;20477;-77
2023/08/18 05:19:13;;;;;;;74.13;52.35;;;18.60;91.30;;;;;;5010408;28;20030;-77
2023/08/18 05:21:38;;;;;;;75.97;51.47;;;18.70;91.20;;;;;;5013560;28;20636;-77
2023/08/18 05:24:05;;;;;;;75.60;50.63;;;18.70;91.10;;;;;;5010494;28;20382;-77
2023/08/18 05:26:30;;;;;;;71.22;49.60;;;18.70;91.00;;;;;;5007788;28;20096;-77
2023/08/18 05:28:56;;;;;;;74.80;53.10;;;18.70;91.00;;;;;;5014248;28;20466;-77
2023/08/18 05:31:22;;;;;;;67.43;50.38;;;18.80;90.90;;;;;;5006241;28;20277;-78
2023/08/18 05:33:47;;;;;;;73.32;51.53;;;18.90;90.90;;;;;;5014805;28;20061;-78
2023/08/18 05:36:13;;;;;;;79.70;54.83;;;18.90;90.80;;;;;;4989310;28;20073;-77
2023/08/18 05:38:39;;;;;;;70.95;49.60;;;18.80;90.80;;;;;;4993204;28;20038;-77
2023/08/18 05:41:06;;;;;;;72.88;52.42;;;18.90;90.90;;;;;;5006399;28;20158;-77
2023/08/18 05:43:34;;;;;;;74.85;52.97;;;18.90;91.00;;;;;;5001164;28;20025;-77
2023/08/18 05:46:00;;;;;;;76.60;52.78;;;19.00;90.90;;;;;;5014065;28;20030;-77
2023/08/18 05:48:26;;;;;;;79.93;53.17;;;19.00;90.90;;;;;;5010077;27;20399;-77
2023/08/18 05:50:51;;;;;;;79.45;54.03;;;19.00;91.00;;;;;;5005529;28;20339;-77
2023/08/18 05:53:17;;;;;;;79.57;54.78;;;19.00;91.00;;;;;;5021256;28;20026;-77
2023/08/18 05:55:45;;;;;;;88.35;56.10;;;19.00;91.10;;;;;;5004840;28;20044;-77
2023/08/18 05:58:11;;;;;;;84.75;55.67;;;19.00;91.10;;;;;;5014341;28;20014;-77
2023/08/18 06:00:37;;;;;;;88.05;57.13;;;19.00;91.10;;;;;;5015778;28;20474;-77
2023/08/18 06:03:02;;;;;;;82.82;58.28;;;19.10;91.20;;;;;;5021583;28;20505;-77
2023/08/18 06:05:28;;;;;;;85.68;57.45;;;19.10;91.30;;;;;;5008912;28;20030;-77
2023/08/18 06:07:55;;;;;;;86.75;57.45;;;19.10;91.20;;;;;;5012943;28;20025;-77
2023/08/18 06:10:21;;;;;;;84.97;57.78;;;19.10;91.00;;;;;;5013771;28;20166;-77
2023/08/18 06:12:47;;;;;;;87.97;59.15;;;19.10;91.00;;;;;;5019532;28;20030;-78
2023/08/18 06:15:13;;;;;;;85.55;57.88;;;19.20;91.10;;;;;;5018759;28;20046;-77
2023/08/18 06:17:40;;;;;;;79.32;54.92;;;19.30;91.00;;;;;;5008707;28;20018;-78
2023/08/18 06:20:06;;;;;;;85.50;57.42;;;19.30;91.10;;;;;;5016854;28;20029;-77
2023/08/18 06:22:32;;;;;;;83.78;58.83;;;19.30;90.90;;;;;;5011530;28;20068;-79
2023/08/18 06:24:58;;;;;;;89.68;60.80;;;19.40;90.70;;;;;;5013880;28;20042;-77
2023/08/18 06:27:24;;;;;;;77.72;55.33;;;19.40;90.50;;;;;;5008993;28;20056;-77
2023/08/18 06:29:50;;;;;;;83.85;56.30;;;19.50;90.40;;;;;;4993052;28;20034;-77
2023/08/18 06:32:15;;;;;;;80.93;57.42;;;19.50;90.30;;;;;;4987767;28;20069;-77
2023/08/18 06:34:41;;;;;;;85.15;56.50;;;19.50;90.30;;;;;;4986848;28;20058;-77
2023/08/18 06:37:07;;;;;;;80.10;55.20;;;19.50;90.40;;;;;;4985841;28;20037;-78
2023/08/18 06:39:32;;;;;;;85.20;57.42;;;19.60;90.30;;;;;;5001098;28;20042;-77
2023/08/18 06:41:58;;;;;;;89.63;58.33;;;19.60;90.30;;;;;;4989884;28;20648;-78
2023/08/18 06:44:24;;;;;;;74.10;54.08;;;19.60;89.90;;;;;;4987642;28;20037;-78
2023/08/18 06:46:49;;;;;;;79.95;55.53;;;19.60;90.00;;;;;;4989827;28;20034;-77
2023/08/18 06:49:15;;;;;;;82.47;55.83;;;19.60;89.90;;;;;;4988158;28;20051;-78
2023/08/18 06:51:41;;;;;;;83.55;57.08;;;19.70;89.90;;;;;;4985573;28;20034;-78
2023/08/18 06:54:06;;;;;;;92.47;58.83;;;19.80;89.50;;;;;;4983858;28;20926;-77
2023/08/18 06:56:32;;;;;;;80.03;57.20;;;19.80;89.20;;;;;;4989085;28;20073;-79
2023/08/18 06:58:58;;;;;;;79.47;55.83;;;19.80;89.20;;;;;;4985338;28;20053;-78
2023/08/18 07:01:24;;;;;;;76.97;53.90;;;19.90;89.20;;;;;;4987267;28;20395;-78
2023/08/18 07:03:50;;;;;;;77.22;56.92;;;19.90;89.20;;;;;;4989881;28;20045;-77
2023/08/18 07:06:16;;;;;;;77.85;53.92;;;20.00;89.10;;;;;;4982123;28;20035;-78
2023/08/18 07:08:41;;;;;;;109.45;61.42;;;20.10;89.10;;;;;;4987310;28;20049;-77
2023/08/18 07:11:07;;;;;;;86.07;57.92;;;20.10;88.50;;;;;;4989099;28;20031;-78
2023/08/18 07:13:34;;;;;;;80.93;55.65;;;20.10;88.40;;;;;;4988007;28;20047;-78
2023/08/18 07:15:59;;;;;;;73.80;55.20;;;20.10;88.50;;;;;;4986147;28;20395;-77
2023/08/18 07:18:25;;;;;;;74.80;55.28;;;20.10;88.10;;;;;;4991229;28;20017;-78
2023/08/18 07:20:52;;;;;;;71.43;53.92;;;20.10;88.10;;;;;;5016813;28;20036;-77
2023/08/18 07:23:18;;;;;;;80.10;54.60;;;20.10;88.20;;;;;;5018395;28;20037;-77
2023/08/18 07:25:45;;;;;;;79.78;55.53;;;20.10;88.20;;;;;;5004623;28;20034;-77
2023/08/18 07:28:11;;;;;;;79.38;56.15;;;20.10;88.00;;;;;;4989241;28;20041;-77
2023/08/18 07:30:36;;;;;;;79.18;55.80;;;20.10;88.30;;;;;;5006880;28;20624;-78
2023/08/18 07:33:02;;;;;;;82.95;56.17;;;20.10;88.50;;;;;;5014705;28;20038;-77
2023/08/18 07:35:28;;;;;;;81.78;54.97;;;20.20;88.50;;;;;;5020457;28;20021;-78
2023/08/18 07:37:54;;;;;;;89.20;58.65;;;20.20;88.50;;;;;;5018287;28;20117;-77
2023/08/18 07:40:20;;;;;;;89.97;54.72;;;20.20;88.40;;;;;;5012549;28;20065;-78
2023/08/18 07:42:46;;;;;;;86.07;55.63;;;20.30;88.40;;;;;;5012398;28;20053;-77
2023/08/18 07:45:11;;;;;;;84.05;55.42;;;20.30;88.20;;;;;;4995539;28;20042;-78
2023/08/18 07:47:38;;;;;;;86.60;55.47;;;20.30;88.00;;;;;;4993938;28;20031;-77
2023/08/18 07:50:08;;;;;;;87.32;55.63;;;20.30;87.80;;;;;;5011739;28;20040;-77
2023/08/18 07:52:34;;;;;;;116.88;59.88;;;20.30;88.10;;;;;;5015116;28;20114;-78
2023/08/18 07:55:01;;;;;;;108.82;60.70;;;20.30;88.30;;;;;;5002842;28;20095;-77
2023/08/18 07:57:26;;;;;;;99.80;60.83;;;20.20;88.10;;;;;;5008468;28;20043;-78
2023/08/18 07:59:52;;;;;;;102.07;64.00;;;20.20;88.00;;;;;;5014220;28;20117;-77
2023/08/18 08:02:18;;;;;;;97.03;60.00;;;20.30;88.10;;;;;;5008379;28;20072;-77
2023/08/18 08:04:44;;;;;;;100.50;63.33;;;20.40;88.30;;;;;;5014523;28;20037;-78
2023/08/18 08:07:09;;;;;;;115.22;66.28;;;20.50;87.80;;;;;;5017260;28;20026;-77
2023/08/18 08:09:35;;;;;;;126.95;65.95;;;20.50;87.70;;;;;;5013149;28;20041;-77
2023/08/18 08:12:01;;;;;;;111.57;65.35;;;20.50;87.50;;;;;;5013530;28;20029;-77
2023/08/18 08:14:27;;;;;;;101.25;61.50;;;20.60;87.50;;;;;;4995407;28;20137;-77
2023/08/18 08:16:53;;;;;;;97.60;62.53;;;20.60;87.20;;;;;;4993731;28;20113;-78
2023/08/18 08:19:19;;;;;;;98.03;60.45;;;20.60;87.50;;;;;;4994684;28;20080;-78
2023/08/18 08:21:44;;;;;;;94.78;61.92;;;20.60;87.70;;;;;;4992805;28;20026;-78
2023/08/18 08:24:10;;;;;;;90.50;59.70;;;20.60;87.50;;;;;;4993598;28;20037;-78
2023/08/18 08:26:36;;;;;;;107.25;60.78;;;20.80;87.70;;;;;;5000257;28;20030;-77
2023/08/18 08:29:02;;;;;;;123.53;62.60;;;20.70;87.00;;;;;;5012304;28;20037;-78
2023/08/18 08:31:28;;;;;;;98.50;58.15;;;20.70;87.00;;;;;;5008886;28;20425;-78
2023/08/18 08:33:53;;;;;;;95.95;58.22;;;20.70;87.10;;;;;;5016442;28;20516;-77
2023/08/18 08:36:19;;;;;;;100.53;58.78;;;20.80;87.10;;;;;;5011478;28;20030;-77
2023/08/18 08:38:44;;;;;;;105.13;56.90;;;20.80;86.60;;;;;;5017417;28;20437;-78
2023/08/18 08:41:10;;;;;;;101.68;56.17;;;20.70;86.80;;;;;;5016232;28;20114;-78
2023/08/18 08:43:36;;;;;;;100.40;55.45;;;20.70;86.90;;;;;;5005162;28;20033;-79
2023/08/18 08:46:02;;;;;;;91.85;54.72;;;20.70;86.80;;;;;;4991376;28;20045;-78
2023/08/18 08:48:34;;;;;;;95.28;54.50;;;20.80;87.00;;;;;;4996227;28;20029;-78
2023/08/18 08:51:03;;;;;;;87.15;52.08;;;20.80;86.80;;;;;;5016080;28;20050;-78
2023/08/18 08:53:36;;;;;;;80.65;49.05;;;20.70;86.60;;;;;;5009432;28;20054;-77
2023/08/18 08:56:02;;;;;;;82.00;48.90;;;20.60;87.20;;;;;;5002865;28;20365;-77
2023/08/18 08:58:31;;;;;;;74.80;47.05;;;20.70;87.30;;;;;;5010305;28;20032;-77
2023/08/18 09:01:01;;;;;;;78.50;47.47;;;20.80;87.40;;;;;;5012537;28;20046;-78
2023/08/18 09:03:29;;;;;;;76.65;46.58;;;20.90;86.70;;;;;;5018068;28;20103;-78
2023/08/18 09:05:55;;;;;;;74.22;44.08;;;20.90;86.40;;;;;;5007528;28;20057;-78
2023/08/18 09:08:21;;;;;;;76.95;44.22;;;21.00;86.10;;;;;;5020296;28;20450;-79
2023/08/18 09:10:47;;;;;;;79.90;47.70;;;21.10;85.80;;;;;;5001182;28;20064;-77
2023/08/18 09:13:13;;;;;;;80.30;49.15;;;21.10;84.90;;;;;;4996929;28;20053;-77
2023/08/18 09:15:44;;;;;;;115.13;55.42;;;21.10;85.20;;;;;;5001032;28;20023;-78
2023/08/18 09:18:12;;;;;;;98.47;53.30;;;21.00;85.10;;;;;;4995637;28;20014;-78
2023/08/18 09:20:38;;;;;;;85.22;50.83;;;21.00;85.10;;;;;;5012081;28;20042;-77
2023/08/18 09:23:04;;;;;;;87.47;51.90;;;21.10;85.80;;;;;;5017645;28;20032;-77
2023/08/18 09:25:36;;;;;;;82.68;50.47;;;21.10;85.50;;;;;;5003864;28;20098;-78
2023/08/18 09:28:05;;;;;;;81.90;49.33;;;21.10;85.50;;;;;;5001609;28;20026;-77
2023/08/18 09:30:32;;;;;;;107.97;53.72;;;21.10;85.10;;;;;;5016082;28;20033;-78
2023/08/18 09:33:02;;;;;;;91.57;52.05;;;21.10;85.00;;;;;;5015396;28;20534;-78
2023/08/18 09:35:34;;;;;;;78.05;47.05;;;21.30;85.30;;;;;;5004004;28;20097;-79
2023/08/18 09:38:01;;;;;;;75.10;46.75;;;21.30;84.70;;;;;;5027954;28;20037;-78
2023/08/18 09:40:28;;;;;;;81.97;48.63;;;21.40;84.50;;;;;;5031780;28;20033;-79
2023/08/18 09:42:54;;;;;;;79.97;48.67;;;21.40;84.30;;;;;;5028522;28;20041;-78
2023/08/18 09:45:24;;;;;;;78.50;47.88;;;21.40;84.20;;;;;;5013966;28;20053;-79
2023/08/18 09:47:56;;;;;;;78.90;48.72;;;21.50;84.50;;;;;;5017414;28;20025;-78
2023/08/18 09:50:26;;;;;;;84.45;51.38;;;21.60;84.20;;;;;;5005069;28;20515;-77
2023/08/18 09:53:00;;;;;;;76.70;48.03;;;21.60;83.50;;;;;;5012355;28;20030;-78
2023/08/18 09:55:34;;;;;;;87.93;50.10;;;21.60;83.70;;;;;;4995681;28;20022;-78
2023/08/18 09:58:18;;;;;;;78.43;46.73;;;21.60;83.70;;;;;;5009719;28;20128;-79
2023/08/18 10:00:45;;;;;;;;;;;21.70;83.50;;;;;;5007157;28;20339;-78
2023/08/18 10:03:16;;;;;;;74.20;45.55;;;21.90;83.20;;;;;;5017755;28;19916;-78
2023/08/18 10:05:43;;;;;;;77.32;47.58;;;22.00;83.20;;;;;;4999941;28;20127;-78
2023/08/18 10:08:09;;;;;;;74.70;48.80;;;22.00;82.90;;;;;;4994208;28;20285;-78
2023/08/18 10:10:36;;;;;;;79.78;48.97;;;22.10;82.80;;;;;;5013375;28;20030;-78
2023/08/18 10:13:05;;;;;;;81.15;51.38;;;22.10;82.30;;;;;;5013074;28;20025;-77
2023/08/18 10:15:32;;;;;;;84.40;50.17;;;22.10;81.70;;;;;;4996168;28;20458;-77
2023/08/18 10:17:58;;;;;;;83.38;50.00;;;22.10;81.60;;;;;;5004985;28;20025;-77
2023/08/18 10:20:27;;;;;;;86.65;50.53;;;22.10;82.20;;;;;;5006527;28;20037;-78
2023/08/18 10:22:55;;;;;;;82.00;50.97;;;22.10;82.20;;;;;;5007362;28;20331;-77
2023/08/18 10:25:25;;;;;;;75.13;47.60;;;22.10;82.40;;;;;;4989079;28;20042;-78
2023/08/18 10:27:51;;;;;;;79.30;48.72;;;22.30;82.20;;;;;;4997197;28;20473;-79
2023/08/18 10:30:17;;;;;;;77.15;48.38;;;22.60;81.60;;;;;;5016915;28;20025;-78
2023/08/18 10:32:45;;;;;;;72.25;45.53;;;22.60;80.70;;;;;;5010965;28;20056;-78
2023/08/18 10:35:22;;;;;;;71.82;47.35;;;22.80;81.40;;;;;;5002534;28;20041;-79
2023/08/18 10:38:05;;;;;;;72.43;47.28;;;23.10;80.20;;;;;;5006228;28;20471;-78
2023/08/18 10:40:34;;;;;;;75.30;46.88;;;23.20;78.60;;;;;;5002109;28;20034;-78
2023/08/18 10:43:12;;;;;;;79.50;47.13;;;23.00;79.60;;;;;;5005948;28;20077;-77
2023/08/18 10:45:40;;;;;;;70.90;45.72;;;23.20;79.40;;;;;;5004554;28;20266;-78
2023/08/18 10:48:09;;;;;;;72.47;47.40;;;23.30;78.30;;;;;;5004011;28;20120;-77
2023/08/18 10:50:38;;;;;;;69.18;45.17;;;23.30;78.00;;;;;;4990448;28;20398;-78
2023/08/18 10:53:04;;;;;;;69.05;45.50;;;23.30;78.70;;;;;;4993200;28;20042;-78
2023/08/18 10:55:31;;;;;;;68.97;46.45;;;23.20;78.90;;;;;;4988958;28;20025;-78
2023/08/18 10:57:58;;;;;;;78.38;45.22;;;23.40;78.20;;;;;;4998932;28;20033;-78
2023/08/18 11:00:24;;;;;;;64.72;42.28;;;23.50;77.90;;;;;;4995648;28;20069;-78
2023/08/18 11:02:52;;;;;;;68.05;44.70;;;23.50;78.00;;;;;;5000491;28;20022;-78
2023/08/18 11:05:22;;;;;;;70.25;46.65;;;23.60;77.60;;;;;;4995193;28;20042;-78
2023/08/18 11:07:50;;;;;;;70.35;45.88;;;23.70;77.10;;;;;;4993618;28;20452;-78
2023/08/18 11:10:18;;;;;;;73.90;46.35;;;23.90;76.60;;;;;;4990677;28;20042;-78
2023/08/18 11:12:50;;;;;;;76.07;49.22;;;23.80;76.70;;;;;;4984552;28;20030;-78
2023/08/18 11:15:26;;;;;;;87.43;50.13;;;23.50;77.10;;;;;;4999567;28;20061;-80
2023/08/18 11:17:53;;;;;;;76.82;48.03;;;23.40;78.80;;;;;;5002633;28;20026;-78
2023/08/18 11:20:21;;;;;;;74.80;47.58;;;23.60;77.80;;;;;;4989812;28;20046;-78
2023/08/18 11:22:54;;;;;;;71.00;45.53;;;23.80;77.60;;;;;;4989734;28;20022;-78
2023/08/18 11:25:23;;;;;;;67.80;45.42;;;23.90;77.30;;;;;;4982801;28;20080;-78
2023/08/18 11:27:51;;;;;;;65.35;44.08;;;24.00;76.90;;;;;;4989475;28;20073;-78
2023/08/18 11:30:18;;;;;;;73.32;46.22;;;24.20;76.80;;;;;;4988609;28;20027;-79
2023/08/18 11:32:45;;;;;;;69.70;45.97;;;24.40;75.80;;;;;;4990195;28;20407;-78
2023/08/18 11:35:13;;;;;;;64.47;43.47;;;24.50;74.90;;;;;;4984803;28;20348;-78
2023/08/18 11:37:45;;;;;;;62.15;41.80;;;24.50;74.90;;;;;;4983686;28;20030;-79
2023/08/18 11:40:22;;;;;;;66.13;44.13;;;24.40;75.00;;;;;;5005204;28;20037;-78
2023/08/18 11:42:50;;;;;;;66.53;45.30;;;24.30;75.60;;;;;;4993561;28;20140;-78
2023/08/18 11:45:21;;;;;;;75.95;47.20;;;24.20;75.90;;;;;;5001001;28;20038;-78
2023/08/18 11:47:58;;;;;;;71.82;46.88;;;24.10;76.30;;;;;;5015660;28;20061;-78
2023/08/18 11:50:54;;;;;;;77.82;46.80;;;24.00;78.00;;;;;;5006451;28;20040;-78
2023/08/18 11:53:25;;;;;;;81.45;45.72;;;24.40;76.40;;;;;;5005015;28;20387;-78
2023/08/18 11:55:51;;;;;;;65.35;44.88;;;24.60;76.20;;;;;;4993384;28;20022;-79
2023/08/18 11:58:21;;;;;;;63.58;42.85;;;24.80;75.90;;;;;;5004413;28;20022;-79
2023/08/18 12:00:48;;;;;;;64.28;43.45;;;25.30;74.60;;;;;;4994721;28;20030;-79
2023/08/18 12:03:24;;;;;;;57.92;39.00;;;25.40;72.30;;;;;;4996283;28;20091;-78
2023/08/18 12:05:52;;;;;;;74.68;46.05;;;25.60;72.50;;;;;;4990288;28;20034;-79
2023/08/18 12:08:18;;;;;;;59.60;40.13;;;25.60;71.30;;;;;;4991785;28;20026;-79
2023/08/18 12:10:48;;;;;;;60.97;43.05;;;25.90;71.60;;;;;;4994929;28;20126;-78
2023/08/18 12:13:14;;;;;;;60.70;41.22;;;25.90;69.20;;;;;;4991206;28;20526;-78
2023/08/18 12:15:40;;;;;;;54.10;40.50;;;25.80;70.20;;;;;;4986458;28;20529;-79
2023/08/18 12:18:06;;;;;;;54.53;39.38;;;25.50;71.30;;;;;;4986842;28;20022;-78
2023/08/18 12:20:33;;;;;;;59.03;42.15;;;25.60;72.50;;;;;;4988156;28;20076;-78
2023/08/18 12:22:59;;;;;;;51.85;37.38;;;25.60;71.60;;;;;;4992050;28;20076;-78
2023/08/18 12:25:25;;;;;;;55.13;39.35;;;25.90;71.80;;;;;;4989482;28;20034;-78